Bookmark and Share
Track history (hours):
 

American Star

More information available from US FCC via Universal Licensing System and Coast Guard Vessel Documentation Center.

Last reported at 2013-Nov-06 05:27 UTC. Time now 2014-Apr-20 00:45 UTC.
Position N 34°25' W 077°36'.
Warning: this ship's position is months out of date.

Length 60 m; draft 2.1 m.

Type: Passenger vessel. MMSI: 367184740.

NotesDate/timePositionNaut miles runAvg speedWind from/ knotsBaromVisibWave heightAir tempDewpointWater temp
2013-Nov-06 05:27N 34°25' W 077°36'33 6.7
2013-Nov-06 00:34N 34°41' W 077°01'6 6.3
2013-Nov-05 23:33N 34°43' W 076°54'6 6.4
2013-Nov-05 22:34N 34°43' W 076°46'4 4.3
2013-Nov-05 21:32N 34°42' W 076°41'0 0.0
2013-Nov-05 20:32N 34°42' W 076°41'0 0.0
2013-Nov-05 19:32N 34°42' W 076°41'0 0.0
2013-Nov-05 18:32N 34°42' W 076°41'0 0.0
2013-Nov-05 17:32N 34°42' W 076°41'0 0.0
2013-Nov-05 16:32N 34°42' W 076°41'0 0.0
2013-Nov-05 15:32N 34°42' W 076°41'0 0.0
2013-Nov-05 14:33N 34°42' W 076°41'0 0.0
2013-Nov-05 13:33N 34°42' W 076°41'0 0.1
2013-Nov-05 12:34N 34°42' W 076°41'5 4.6
2013-Nov-05 11:34N 34°47' W 076°41'6 6.4
2013-Nov-05 10:33N 34°53' W 076°41'5 5.2
2013-Nov-05 09:34N 34°58' W 076°42'8 8.4
2013-Nov-05 08:33N 35°04' W 076°34'  
2013-Nov-02 23:33N 38°27' W 076°24'9 8.7
2013-Nov-02 22:33N 38°35' W 076°28'9 9.5
2013-Nov-02 21:33N 38°45' W 076°28'9 9.2
2013-Nov-02 20:33N 38°54' W 076°25'9 8.8
2013-Nov-02 19:33N 39°02' W 076°23'9 8.6
2013-Nov-02 18:33N 39°10' W 076°26'8 8.1
2013-Nov-02 17:33N 39°15' W 076°34'3 2.6
2013-Nov-02 16:33N 39°17' W 076°37'0 0.0
2013-Nov-02 15:32N 39°17' W 076°37'0 0.0
2013-Nov-02 14:32N 39°17' W 076°37'0 0.0
2013-Nov-02 13:32N 39°17' W 076°37'0 0.0
2013-Nov-02 12:32N 39°17' W 076°37'0 0.0
2013-Nov-02 11:32N 39°17' W 076°37'0 0.0
2013-Nov-02 10:32N 39°17' W 076°37'0 0.0
2013-Nov-02 09:32N 39°17' W 076°37'0 0.0
2013-Nov-02 08:32N 39°17' W 076°37'0 0.0
2013-Nov-02 07:32N 39°17' W 076°37'0 0.0
2013-Nov-02 06:32N 39°17' W 076°37'0 0.0
2013-Nov-02 05:32N 39°17' W 076°37'0 0.0
2013-Nov-02 04:32N 39°17' W 076°37'0 0.0
2013-Nov-02 03:32N 39°17' W 076°37'0 0.0
2013-Nov-02 02:32N 39°17' W 076°37'0 0.0
2013-Nov-02 01:32N 39°17' W 076°37'0 0.0
2013-Nov-02 00:32N 39°17' W 076°37'0 0.0
2013-Nov-01 23:32N 39°17' W 076°37'0 0.0
2013-Nov-01 22:32N 39°17' W 076°37'0 0.0
2013-Nov-01 21:32N 39°17' W 076°37'0 0.0
2013-Nov-01 20:32N 39°17' W 076°37'0 0.0
2013-Nov-01 19:32N 39°17' W 076°37'0 0.0
2013-Nov-01 18:32N 39°17' W 076°37'0 0.0
2013-Nov-01 17:32N 39°17' W 076°37'0 0.0
2013-Nov-01 16:32N 39°17' W 076°37'4 3.8
2013-Nov-01 15:34N 39°14' W 076°33'8 7.7
2013-Nov-01 14:33N 39°10' W 076°25'7 7.0
2013-Nov-01 13:34N 39°03' W 076°23'8 7.7
2013-Nov-01 12:34N 38°55' W 076°23'6 6.2
2013-Nov-01 11:34N 38°50' W 076°21'6 5.6
2013-Nov-01 10:34N 38°51' W 076°14'3 3.1
2013-Nov-01 09:31N 38°47' W 076°13'0 0.0
2013-Nov-01 08:31N 38°47' W 076°13'0 0.0
2013-Nov-01 07:31N 38°47' W 076°13'0 0.0
2013-Nov-01 06:31N 38°47' W 076°13'0 0.0
2013-Nov-01 05:31N 38°47' W 076°13'0 0.0
2013-Nov-01 04:31N 38°47' W 076°13'0 0.0
2013-Nov-01 03:31N 38°47' W 076°13'0 0.0
2013-Nov-01 02:31N 38°47' W 076°13'0 0.0
2013-Nov-01 01:31N 38°47' W 076°13'0 0.0
2013-Nov-01 00:31N 38°47' W 076°13'0 0.0
2013-Oct-31 23:31N 38°47' W 076°13'0 0.0
2013-Oct-31 22:31N 38°47' W 076°13'0 0.0
2013-Oct-31 21:31N 38°47' W 076°13'0 0.0
2013-Oct-31 20:31N 38°47' W 076°13'0 0.0
2013-Oct-31 19:31N 38°47' W 076°13'0 0.0
2013-Oct-31 18:31N 38°47' W 076°13'0 0.0
2013-Oct-31 17:31N 38°47' W 076°13'0 0.0
2013-Oct-31 16:31N 38°47' W 076°13'0 0.0
2013-Oct-31 15:31N 38°47' W 076°13'0 0.0
2013-Oct-31 14:31N 38°47' W 076°13'0 0.0
2013-Oct-31 13:31N 38°47' W 076°13'0 0.0
2013-Oct-31 12:33N 38°47' W 076°13'5 5.3
2013-Oct-31 11:33N 38°52' W 076°17'9 9.2
2013-Oct-31 10:33N 38°46' W 076°25'9 8.7
2013-Oct-31 09:33N 38°38' W 076°19'9 9.4
2013-Oct-31 08:33N 38°36' W 076°08'3 3.3
2013-Oct-31 07:33N 38°34' W 076°04'0 0.0
2013-Oct-31 06:33N 38°34' W 076°04'0 0.0
2013-Oct-31 05:33N 38°34' W 076°04'0 0.0
2013-Oct-31 04:33N 38°34' W 076°04'0 0.0
2013-Oct-31 03:33N 38°34' W 076°04'0 0.0
2013-Oct-31 02:33N 38°34' W 076°04'0 0.0
2013-Oct-31 01:33N 38°34' W 076°04'0 0.0
2013-Oct-31 00:33N 38°34' W 076°04'0 0.0
2013-Oct-30 23:33N 38°34' W 076°04'0 0.0
2013-Oct-30 21:33N 38°34' W 076°04'0 0.0
2013-Oct-30 20:33N 38°34' W 076°04'0 0.0
2013-Oct-30 19:33N 38°34' W 076°04'0 0.0
2013-Oct-30 18:33N 38°34' W 076°04'0 0.0
2013-Oct-30 17:33N 38°34' W 076°04'0 0.0
2013-Oct-30 16:33N 38°34' W 076°04'0 0.0
2013-Oct-30 15:18N 38°34' W 076°04'0 0.0
2013-Oct-30 14:15N 38°34' W 076°04'0 0.0
2013-Oct-30 11:15N 38°34' W 076°04'0 0.0
2013-Oct-30 10:21N 38°34' W 076°04'0 0.0
2013-Oct-30 09:18N 38°34' W 076°04'0 0.0
2013-Oct-30 08:30N 38°34' W 076°04'0 0.0
2013-Oct-30 07:33N 38°34' W 076°04'0 0.0
2013-Oct-30 06:33N 38°34' W 076°04'0 0.0
2013-Oct-30 05:33N 38°34' W 076°04'0 0.0
2013-Oct-30 04:33N 38°34' W 076°04'0 0.0
2013-Oct-30 03:21N 38°34' W 076°04'0 0.0
2013-Oct-30 02:28N 38°34' W 076°04'4 4.6
2013-Oct-30 01:33N 38°37' W 076°08'16 0.3
2013-Oct-27 23:31N 38°26' W 076°23'7 7.6
2013-Oct-27 22:33N 38°32' W 076°28'1010.0
2013-Oct-27 21:33N 38°42' W 076°28'1010.3
2013-Oct-27 20:33N 38°52' W 076°26'1010.3
2013-Oct-27 19:33N 39°03' W 076°23'10 9.6
2013-Oct-27 18:33N 39°11' W 076°28'9 8.6
2013-Oct-27 17:33N 39°17' W 076°36'0 0.2
2013-Oct-27 16:33N 39°17' W 076°37'0 0.0
2013-Oct-27 15:33N 39°17' W 076°37'0 0.0
2013-Oct-27 14:33N 39°17' W 076°37'0 0.0
2013-Oct-27 13:33N 39°17' W 076°37'0 0.0
2013-Oct-27 12:33N 39°17' W 076°37'0 0.0
2013-Oct-27 11:33N 39°17' W 076°37'0 0.0
2013-Oct-27 10:33N 39°17' W 076°37'0 0.0
2013-Oct-27 09:33N 39°17' W 076°37'0 0.0
2013-Oct-27 08:33N 39°17' W 076°37'0 0.0
2013-Oct-27 07:30N 39°17' W 076°37'0 0.0
2013-Oct-27 06:30N 39°17' W 076°37'0 0.0
2013-Oct-27 05:30N 39°17' W 076°37'  

Dump ship's entire track history

sailing weather and tide predictions

American Star — WDD7311 — position and weather